Gaz Venture — 3FLQ4 — position and weather

sailwx.info

Track history (hours):
 
Tides and Currents Weather Stations Pressure Air Temp Water Temp Dewpoint Dewpoint Depression Visibility Wind Speed Wind Dir Waves Ship Positions

Gaz Venture

Last reported at 2015-May-21 09:33 UTC. Time now 2015-May-22 14:37 UTC.
Position N 32°57' E 013°12'.

Length 120 m; draft 6.9 m.

Type: Tanker. MMSI: 356141000.

Date/timePositionNaut miles runAvg speedWind from/ knotsBaromVisibWave heightAir tempDewpointWater temp
2015-May-21 09:33N 32°57' E 013°12'0 0.0
2015-May-21 07:06N 32°57' E 013°12'0 0.1
2015-May-21 06:27N 32°57' E 013°12'0 0.0
2015-May-21 05:27N 32°57' E 013°12'108 2.6
2015-May-19 11:33N 32°22' E 015°13'  
2015-May-16 18:32N 35°50' E 015°19'0 0.4
2015-May-16 17:33N 35°49' E 015°19'0 0.4
2015-May-16 16:32N 35°49' E 015°18'0 0.4
2015-May-16 15:33N 35°49' E 015°18'1 0.5
2015-May-16 14:29N 35°49' E 015°17'0 0.3
2015-May-16 13:12N 35°49' E 015°17'0 0.4
2015-May-16 12:05N 35°49' E 015°17'713.4
2015-May-16 11:33N 35°49' E 015°08'1313.6
2015-May-16 10:33N 35°51' E 014°52'4 3.5
2015-May-16 09:32N 35°52' E 014°47'0 0.0
2015-May-16 08:32N 35°52' E 014°47'0 0.0
2015-May-16 07:32N 35°52' E 014°47'0 0.0
2015-May-16 06:32N 35°52' E 014°47'0 0.0
2015-May-16 05:32N 35°52' E 014°47'0 0.0
2015-May-16 04:32N 35°52' E 014°47'0 0.0
2015-May-16 03:29N 35°52' E 014°47'0 0.0
2015-May-16 02:32N 35°52' E 014°47'0 0.0
2015-May-16 01:32N 35°52' E 014°47'0 0.0
2015-May-16 00:32N 35°52' E 014°47'0 0.1
2015-May-15 23:29N 35°52' E 014°47'0 0.0
2015-May-15 22:32N 35°52' E 014°47'0 0.0
2015-May-15 21:32N 35°52' E 014°47'0 0.0
2015-May-15 20:29N 35°52' E 014°47'0 0.0
2015-May-15 19:32N 35°52' E 014°47'1010.0
2015-May-15 18:34N 35°43' E 014°45'1514.8
2015-May-15 17:34N 35°29' E 014°39'1514.9
2015-May-15 16:33N 35°17' E 014°28'1515.2
2015-May-15 15:33N 35°05' E 014°16'1515.0
2015-May-15 14:34N 34°53' E 014°05'1514.9
2015-May-15 13:34N 34°41' E 013°54'1514.8
2015-May-15 12:34N 34°30' E 013°43'1514.6
2015-May-15 11:34N 34°18' E 013°32'1514.6
2015-May-15 10:33N 34°07' E 013°21'92 4.2
2015-May-14 12:33N 32°53' E 012°15'0 0.0
2015-May-14 07:32N 32°53' E 012°15'0 0.2
2015-May-14 06:33N 32°53' E 012°15'2 1.8
2015-May-14 05:23N 32°55' E 012°16'6 6.5
2015-May-14 04:27N 32°60' E 012°20'1514.1
2015-May-14 03:25N 33°06' E 012°36'1315.3
2015-May-14 02:32N 33°07' E 012°51'1615.2
2015-May-14 01:31N 33°07' E 013°10'1515.3
2015-May-14 00:33N 33°08' E 013°27'3115.3
2015-May-13 22:33N 33°10' E 014°04'1615.9
2015-May-13 21:32N 33°10' E 014°23'1616.1
2015-May-13 20:33N 33°11' E 014°42'1616.2
2015-May-13 19:33N 33°12' E 015°02'1615.9
2015-May-13 18:33N 33°13' E 015°21'1615.7
2015-May-13 17:33N 33°13' E 015°39'9815.7
2015-May-13 11:21N 33°17' E 017°36'  
Track history (hours):
 
Tides and Currents Weather Stations Pressure Air Temp Water Temp Dewpoint Dewpoint Depression Visibility Wind Speed Wind Dir Waves Ship Positions

Gaz Venture

Last reported at 2015-May-21 09:33 UTC. Time now 2015-May-22 14:37 UTC.
Position N 32°57' E 013°12'.

Length 120 m; draft 6.9 m.

Type: Tanker. MMSI: 356141000.

Date/timePositionNaut miles runAvg speedWind from/ knotsBaromVisibWave heightAir tempDewpointWater temp
2015-May-21 09:33N 32°57' E 013°12'0 0.0
2015-May-21 07:06N 32°57' E 013°12'0 0.1
2015-May-21 06:27N 32°57' E 013°12'0 0.0
2015-May-21 05:27N 32°57' E 013°12'108 2.6
2015-May-19 11:33N 32°22' E 015°13'  
2015-May-16 18:32N 35°50' E 015°19'0 0.4
2015-May-16 17:33N 35°49' E 015°19'0 0.4
2015-May-16 16:32N 35°49' E 015°18'0 0.4
2015-May-16 15:33N 35°49' E 015°18'1 0.5
2015-May-16 14:29N 35°49' E 015°17'0 0.3
2015-May-16 13:12N 35°49' E 015°17'0 0.4
2015-May-16 12:05N 35°49' E 015°17'713.4
2015-May-16 11:33N 35°49' E 015°08'1313.6
2015-May-16 10:33N 35°51' E 014°52'4 3.5
2015-May-16 09:32N 35°52' E 014°47'0 0.0
2015-May-16 08:32N 35°52' E 014°47'0 0.0
2015-May-16 07:32N 35°52' E 014°47'0 0.0
2015-May-16 06:32N 35°52' E 014°47'0 0.0
2015-May-16 05:32N 35°52' E 014°47'0 0.0
2015-May-16 04:32N 35°52' E 014°47'0 0.0
2015-May-16 03:29N 35°52' E 014°47'0 0.0
2015-May-16 02:32N 35°52' E 014°47'0 0.0
2015-May-16 01:32N 35°52' E 014°47'0 0.0
2015-May-16 00:32N 35°52' E 014°47'0 0.1
2015-May-15 23:29N 35°52' E 014°47'0 0.0
2015-May-15 22:32N 35°52' E 014°47'0 0.0
2015-May-15 21:32N 35°52' E 014°47'0 0.0
2015-May-15 20:29N 35°52' E 014°47'0 0.0
2015-May-15 19:32N 35°52' E 014°47'1010.0
2015-May-15 18:34N 35°43' E 014°45'1514.8
2015-May-15 17:34N 35°29' E 014°39'1514.9
2015-May-15 16:33N 35°17' E 014°28'1515.2
2015-May-15 15:33N 35°05' E 014°16'1515.0
2015-May-15 14:34N 34°53' E 014°05'1514.9
2015-May-15 13:34N 34°41' E 013°54'1514.8
2015-May-15 12:34N 34°30' E 013°43'1514.6
2015-May-15 11:34N 34°18' E 013°32'1514.6
2015-May-15 10:33N 34°07' E 013°21'92 4.2
2015-May-14 12:33N 32°53' E 012°15'0 0.0
2015-May-14 07:32N 32°53' E 012°15'0 0.2
2015-May-14 06:33N 32°53' E 012°15'2 1.8
2015-May-14 05:23N 32°55' E 012°16'6 6.5
2015-May-14 04:27N 32°60' E 012°20'1514.1
2015-May-14 03:25N 33°06' E 012°36'1315.3
2015-May-14 02:32N 33°07' E 012°51'1615.2
2015-May-14 01:31N 33°07' E 013°10'1515.3
2015-May-14 00:33N 33°08' E 013°27'3115.3
2015-May-13 22:33N 33°10' E 014°04'1615.9
2015-May-13 21:32N 33°10' E 014°23'1616.1
2015-May-13 20:33N 33°11' E 014°42'1616.2
2015-May-13 19:33N 33°12' E 015°02'1615.9
2015-May-13 18:33N 33°13' E 015°21'1615.7
2015-May-13 17:33N 33°13' E 015°39'9815.7
2015-May-13 11:21N 33°17' E 017°36'  

Dump ship's entire track history